^^
Datos históricos de la estación: Murcia-Puente Tocinos
Diario Informe para Junio 17, 2019 Unidades:  Ambas    Ingés   Métrico
Diario Semanal Mensual Anual
  Máxima: Mínima: Promedio:
Temperatura: 76.8 °F /  24.9 °C 63 °F /  17.2 °C 70 °F /  21.1 °C
Punto de rocio: 58.3 °F /  14.6 °C 34.5 °F /  1.4 °C 44.2 °F /  6.8 °C
Humedad: 83.8% 22.6% 44%
Velocidad viento: 16.3mph /  26.2km/h - 7.8mph /  12.5km/h
Racha viento: 31.1mph /  50.1km/h - -
Viento- - Oeste
Presión: 29.8 in /  1008.1 hPa 29.6 in /  1001.3 hPa -
Precipitación: 0 in /  0.0 mm    
 
 
Tabla de datos para Junio 17, 2019
Hora Temperatura Punto de rocio Presión Viento Velocidad viento Racha viento Humedad Intensidad lluvia(por hora) Nubes
00:04 64.4 °F /  18 °C 57.6 °F /  14.2 °C 29.7in /  1004.4hPa NNE 4.3mph /  6.9km/h 6mph /  9.7km/h 78.1% 0in /  0.0mm
00:09 64.2 °F /  17.9 °C 57.6 °F /  14.2 °C 29.7in /  1004.2hPa North 3.8mph /  6.1km/h 5.2mph /  8.4km/h 79% 0in /  0.0mm
00:14 64.2 °F /  17.9 °C 57.7 °F /  14.3 °C 29.7in /  1004.2hPa NNE 2.9mph /  4.7km/h 5mph /  8km/h 79.6% 0in /  0.0mm
00:19 64 °F /  17.8 °C 57.9 °F /  14.4 °C 29.7in /  1004.2hPa NNE 2.9mph /  4.7km/h 5.2mph /  8.4km/h 80.2% 0in /  0.0mm
00:24 64 °F /  17.8 °C 58.1 °F /  14.5 °C 29.7in /  1004.1hPa NNE 2.9mph /  4.7km/h 5mph /  8km/h 81% 0in /  0.0mm
00:29 64 °F /  17.8 °C 58.1 °F /  14.5 °C 29.7in /  1004.1hPa NE 2.3mph /  3.7km/h 5.8mph /  9.3km/h 81% 0in /  0.0mm
00:34 63.9 °F /  17.7 °C 58.3 °F /  14.6 °C 29.7in /  1004.1hPa NE 1.4mph /  2.2km/h 6mph /  9.7km/h 81.9% 0in /  0.0mm
00:39 63.9 °F /  17.7 °C 58.3 °F /  14.6 °C 29.6in /  1003.9hPa NE 1.7mph /  2.8km/h 6mph /  9.7km/h 82% 0in /  0.0mm
00:44 63.7 °F /  17.6 °C 58.1 °F /  14.5 °C 29.6in /  1003.9hPa NNE 2.4mph /  3.9km/h 5mph /  8km/h 82% 0in /  0.0mm
00:49 63.7 °F /  17.6 °C 58.1 °F /  14.5 °C 29.6in /  1003.9hPa NNO 2mph /  3.2km/h 4.3mph /  6.9km/h 82% 0in /  0.0mm
00:54 63.7 °F /  17.6 °C 58.1 °F /  14.5 °C 29.6in /  1003.7hPa NO 1.4mph /  2.2km/h 5mph /  8km/h 82% 0in /  0.0mm
00:59 63.7 °F /  17.6 °C 58.3 °F /  14.6 °C 29.6in /  1003.7hPa NNO 2mph /  3.2km/h 5mph /  8km/h 82.9% 0in /  0.0mm
01:04 63.5 °F /  17.5 °C 58.3 °F /  14.6 °C 29.6in /  1003.7hPa NNO 2.9mph /  4.7km/h 5mph /  8km/h 83% 0in /  0.0mm
01:09 63.3 °F /  17.4 °C 58.1 °F /  14.5 °C 29.6in /  1003.6hPa North 2.7mph /  4.3km/h 5mph /  8km/h 83% 0in /  0.0mm
01:14 63.3 °F /  17.4 °C 58.3 °F /  14.6 °C 29.6in /  1003.6hPa NO 2.4mph /  3.9km/h 5mph /  8km/h 83.8% 0in /  0.0mm
01:19 63.3 °F /  17.4 °C 58.1 °F /  14.5 °C 29.6in /  1003.6hPa NO 2.2mph /  3.6km/h 5mph /  8km/h 83.2% 0in /  0.0mm
01:24 63.3 °F /  17.4 °C 58.1 °F /  14.5 °C 29.6in /  1003.6hPa NO 2mph /  3.2km/h 4mph /  6.4km/h 83% 0in /  0.0mm
01:29 63.3 °F /  17.4 °C 57.7 °F /  14.3 °C 29.6in /  1003.6hPa NO 1.9mph /  3.1km/h 4.3mph /  6.9km/h 82.3% 0in /  0.0mm
01:34 63.1 °F /  17.3 °C 57.6 °F /  14.2 °C 29.6in /  1003.6hPa NO 1.8mph /  2.9km/h 5mph /  8km/h 82% 0in /  0.0mm
01:39 63.1 °F /  17.3 °C 57.6 °F /  14.2 °C 29.6in /  1003.6hPa NNO 2.2mph /  3.6km/h 5.2mph /  8.4km/h 82% 0in /  0.0mm
01:44 63.1 °F /  17.3 °C 57.6 °F /  14.2 °C 29.6in /  1003.6hPa NNO 2.9mph /  4.7km/h 5mph /  8km/h 82% 0in /  0.0mm
01:49 63.1 °F /  17.3 °C 57.6 °F /  14.2 °C 29.6in /  1003.6hPa NO 2.5mph /  4.1km/h 5mph /  8km/h 82% 0in /  0.0mm
01:54 63 °F /  17.2 °C 57.6 °F /  14.2 °C 29.6in /  1003.4hPa NO 2mph /  3.2km/h 5mph /  8km/h 82.5% 0in /  0.0mm
01:59 63 °F /  17.2 °C 57.7 °F /  14.3 °C 29.6in /  1003.4hPa NO 2mph /  3.2km/h 5mph /  8km/h 82.9% 0in /  0.0mm
02:04 63 °F /  17.2 °C 57.7 °F /  14.3 °C 29.6in /  1003.4hPa NO 2mph /  3.2km/h 4.6mph /  7.4km/h 83% 0in /  0.0mm
02:09 63 °F /  17.2 °C 57.7 °F /  14.3 °C 29.6in /  1003.1hPa NO 2mph /  3.2km/h 5mph /  8km/h 83% 0in /  0.0mm
02:14 63 °F /  17.2 °C 57.7 °F /  14.3 °C 29.6in /  1003.1hPa NNO 2mph /  3.2km/h 5.2mph /  8.4km/h 83% 0in /  0.0mm
02:19 63 °F /  17.2 °C 57.7 °F /  14.3 °C 29.6in /  1003.1hPa NNO 2mph /  3.2km/h 5mph /  8km/h 83% 0in /  0.0mm
02:24 63 °F /  17.2 °C 57.7 °F /  14.3 °C 29.6in /  1003.0hPa NO 2mph /  3.2km/h 5mph /  8km/h 83% 0in /  0.0mm
02:29 63 °F /  17.2 °C 57.7 °F /  14.3 °C 29.6in /  1003.0hPa ONO 2mph /  3.2km/h 3mph /  4.8km/h 83% 0in /  0.0mm
02:34 63 °F /  17.2 °C 57.7 °F /  14.3 °C 29.6in /  1003.0hPa ONO 2mph /  3.2km/h 2.4mph /  3.9km/h 83% 0in /  0.0mm
02:39 63 °F /  17.2 °C 57.7 °F /  14.3 °C 29.6in /  1002.6hPa Este 2mph /  3.2km/h 4.3mph /  6.9km/h 83% 0in /  0.0mm
02:44 63 °F /  17.2 °C 57.7 °F /  14.3 °C 29.6in /  1002.6hPa SE 2mph /  3.2km/h 5mph /  8km/h 83% 0in /  0.0mm
02:49 63 °F /  17.2 °C 57.7 °F /  14.3 °C 29.6in /  1002.6hPa SE 2mph /  3.2km/h 5mph /  8km/h 83% 0in /  0.0mm
02:54 63.1 °F /  17.3 °C 57.9 °F /  14.4 °C 29.6in /  1002.3hPa SE 2.6mph /  4.2km/h 5mph /  8km/h 83% 0in /  0.0mm
02:59 63.1 °F /  17.3 °C 57.9 °F /  14.4 °C 29.6in /  1002.3hPa SE 1.9mph /  3km/h 3mph /  4.8km/h 83% 0in /  0.0mm
03:04 63.1 °F /  17.3 °C 57.7 °F /  14.3 °C 29.6in /  1002.3hPa Calm   3.6mph /  5.8km/h 82.3% 0in /  0.0mm
03:09 63.1 °F /  17.3 °C 57.7 °F /  14.3 °C 29.6in /  1002.1hPa ONO 0.4mph /  0.7km/h 4mph /  6.4km/h 82.6% 0in /  0.0mm
03:14 63.1 °F /  17.3 °C 57.9 °F /  14.4 °C 29.6in /  1002.1hPa ONO 1.4mph /  2.2km/h 4mph /  6.4km/h 83% 0in /  0.0mm
03:19 63.1 °F /  17.3 °C 57.9 °F /  14.4 °C 29.6in /  1002.1hPa ONO 1.5mph /  2.4km/h 3mph /  4.8km/h 83% 0in /  0.0mm
03:24 63.1 °F /  17.3 °C 57.9 °F /  14.4 °C 29.6in /  1002.0hPa ONO 1.8mph /  2.9km/h 4mph /  6.4km/h 83% 0in /  0.0mm
03:29 63.1 °F /  17.3 °C 57.9 °F /  14.4 °C 29.6in /  1002.0hPa ONO 1.1mph /  1.8km/h 5mph /  8km/h 83% 0in /  0.0mm
03:34 63.1 °F /  17.3 °C 57.9 °F /  14.4 °C 29.6in /  1002.0hPa Calm   5mph /  8km/h 83% 0in /  0.0mm
03:39 63.1 °F /  17.3 °C 57.9 °F /  14.4 °C 29.6in /  1001.9hPa Calm   4.6mph /  7.4km/h 83% 0in /  0.0mm
03:44 63.1 °F /  17.3 °C 57.6 °F /  14.2 °C 29.6in /  1001.9hPa Calm   5.2mph /  8.4km/h 82.1% 0in /  0.0mm
03:49 63.1 °F /  17.3 °C 57.6 °F /  14.2 °C 29.6in /  1001.9hPa OSO 1.1mph /  1.8km/h 6.9mph /  11.1km/h 82% 0in /  0.0mm
03:54 63.1 °F /  17.3 °C 57.6 °F /  14.2 °C 29.6in /  1001.9hPa Oeste 2.9mph /  4.7km/h 7mph /  11.3km/h 81.9% 0in /  0.0mm
03:59 63.3 °F /  17.4 °C 57.4 °F /  14.1 °C 29.6in /  1001.9hPa Oeste 3.4mph /  5.4km/h 11.5mph /  18.5km/h 81% 0in /  0.0mm
04:04 63.1 °F /  17.3 °C 57.4 °F /  14.1 °C 29.6in /  1002.1hPa OSO 4.3mph /  6.9km/h 12mph /  19.3km/h 81% 0in /  0.0mm
04:09 63.1 °F /  17.3 °C 57.2 °F /  14 °C 29.6in /  1002.1hPa SSO 4.7mph /  7.5km/h 9.7mph /  15.6km/h 81% 0in /  0.0mm
04:14 63.1 °F /  17.3 °C 57.4 °F /  14.1 °C 29.6in /  1002.1hPa SSO 5.4mph /  8.7km/h 10.4mph /  16.7km/h 81% 0in /  0.0mm
04:19 63.3 °F /  17.4 °C 57.4 °F /  14.1 °C 29.6in /  1002.1hPa SSO 5.4mph /  8.7km/h 10mph /  16.1km/h 81% 0in /  0.0mm
04:24 63.3 °F /  17.4 °C 57.4 °F /  14.1 °C 29.6in /  1001.8hPa SSO 5.4mph /  8.7km/h 7mph /  11.3km/h 81% 0in /  0.0mm
04:29 63.3 °F /  17.4 °C 57.4 °F /  14.1 °C 29.6in /  1001.8hPa Sur 4.8mph /  7.8km/h 8.1mph /  13km/h 81% 0in /  0.0mm
04:34 63.3 °F /  17.4 °C 57.4 °F /  14.1 °C 29.6in /  1001.8hPa SSO 4.3mph /  6.9km/h 8.1mph /  13km/h 81% 0in /  0.0mm
04:39 63.3 °F /  17.4 °C 57.4 °F /  14.1 °C 29.6in /  1001.6hPa SSO 4.5mph /  7.2km/h 7.4mph /  11.9km/h 81% 0in /  0.0mm
04:44 63.3 °F /  17.4 °C 57.4 °F /  14.1 °C 29.6in /  1001.6hPa Sur 4.7mph /  7.6km/h 9.2mph /  14.8km/h 81% 0in /  0.0mm
04:49 63.3 °F /  17.4 °C 57.4 °F /  14.1 °C 29.6in /  1001.6hPa SSO 4.9mph /  7.9km/h 9mph /  14.5km/h 81% 0in /  0.0mm
04:54 63.3 °F /  17.4 °C 57.4 °F /  14.1 °C 29.6in /  1001.3hPa OSO 5.2mph /  8.4km/h 7mph /  11.3km/h 81% 0in /  0.0mm
04:59 63.3 °F /  17.4 °C 57.4 °F /  14.1 °C 29.6in /  1001.3hPa Oeste 4.5mph /  7.3km/h 7.6mph /  12.2km/h 81% 0in /  0.0mm
05:04 63.3 °F /  17.4 °C 57.4 °F /  14.1 °C 29.6in /  1001.3hPa OSO 3.6mph /  5.8km/h 8.1mph /  13km/h 81% 0in /  0.0mm
05:09 63.3 °F /  17.4 °C 57.4 °F /  14.1 °C 29.6in /  1001.3hPa SO 3.9mph /  6.2km/h 8mph /  12.9km/h 81% 0in /  0.0mm
05:14 63.3 °F /  17.4 °C 57.4 °F /  14.1 °C 29.6in /  1001.3hPa SSO 4.3mph /  6.9km/h 7mph /  11.3km/h 81% 0in /  0.0mm
05:19 63.3 °F /  17.4 °C 57.2 °F /  14 °C 29.6in /  1001.6hPa Sur 4.3mph /  6.9km/h 8.1mph /  13km/h 80.4% 0in /  0.0mm
05:24 63.3 °F /  17.4 °C 57 °F /  13.9 °C 29.6in /  1001.6hPa SO 4.3mph /  6.9km/h 8.1mph /  13km/h 80.3% 0in /  0.0mm
05:29 63.3 °F /  17.4 °C 57.4 °F /  14.1 °C 29.6in /  1001.6hPa OSO 4.3mph /  6.9km/h 7.4mph /  11.9km/h 81% 0in /  0.0mm
05:34 63.3 °F /  17.4 °C 57.2 °F /  14 °C 29.6in /  1001.9hPa OSO 4.3mph /  6.9km/h 8.1mph /  13km/h 80.5% 0in /  0.0mm
05:39 63.3 °F /  17.4 °C 57 °F /  13.9 °C 29.6in /  1001.9hPa Oeste 4.3mph /  6.9km/h 10.4mph /  16.7km/h 80% 0in /  0.0mm
05:44 63.5 °F /  17.5 °C 56.8 °F /  13.8 °C 29.6in /  1001.9hPa Oeste 4.3mph /  6.9km/h 10mph /  16.1km/h 79% 0in /  0.0mm
05:49 63.9 °F /  17.7 °C 56.7 °F /  13.7 °C 29.6in /  1002.0hPa Oeste 4.3mph /  6.9km/h 9.2mph /  14.8km/h 77.6% 0in /  0.0mm
05:54 64.6 °F /  18.1 °C 55.6 °F /  13.1 °C 29.6in /  1002.0hPa Oeste 4.3mph /  6.9km/h 13.8mph /  22.2km/h 72.8% 0in /  0.0mm
05:59 65.3 °F /  18.5 °C 54.5 °F /  12.5 °C 29.6in /  1002.0hPa ONO 4.7mph /  7.5km/h 15.2mph /  24.5km/h 68% 0in /  0.0mm
06:04 65.7 °F /  18.7 °C 54 °F /  12.2 °C 29.6in /  1002.1hPa Oeste 8.1mph /  13km/h 15mph /  24.1km/h 66.1% 0in /  0.0mm
06:09 65.7 °F /  18.7 °C 53.4 °F /  11.9 °C 29.6in /  1002.1hPa ONO 8.1mph /  13km/h 17.3mph /  27.8km/h 64.6% 0in /  0.0mm
06:14 65.7 °F /  18.7 °C 52.5 °F /  11.4 °C 29.6in /  1002.1hPa ONO 8.1mph /  13km/h 17.5mph /  28.2km/h 62.7% 0in /  0.0mm
06:19 65.8 °F /  18.8 °C 52 °F /  11.1 °C 29.6in /  1002.3hPa Oeste 7.9mph /  12.7km/h 17mph /  27.4km/h 60.8% 0in /  0.0mm
06:24 65.8 °F /  18.8 °C 51.3 °F /  10.7 °C 29.6in /  1002.3hPa Oeste 7.6mph /  12.2km/h 16.1mph /  25.9km/h 59.2% 0in /  0.0mm
06:29 66 °F /  18.9 °C 51.3 °F /  10.7 °C 29.6in /  1002.3hPa Oeste 7.5mph /  12.1km/h 16mph /  25.7km/h 59% 0in /  0.0mm
06:34 65.8 °F /  18.8 °C 51.4 °F /  10.8 °C 29.6in /  1002.6hPa Oeste 7.4mph /  11.9km/h 13mph /  20.9km/h 59.9% 0in /  0.0mm
06:39 65.7 °F /  18.7 °C 51.1 °F /  10.6 °C 29.6in /  1002.6hPa Oeste 6.6mph /  10.7km/h 13.8mph /  22.2km/h 59.4% 0in /  0.0mm
06:44 65.7 °F /  18.7 °C 50 °F /  10 °C 29.6in /  1002.6hPa Oeste 5.4mph /  8.7km/h 14mph /  22.5km/h 57.2% 0in /  0.0mm
06:49 65.8 °F /  18.8 °C 48.4 °F /  9.1 °C 29.6in /  1002.7hPa Oeste 6.2mph /  9.9km/h 18.1mph /  29.1km/h 53.4% 0in /  0.0mm
06:54 66.4 °F /  19.1 °C 47.1 °F /  8.4 °C 29.6in /  1002.7hPa Oeste 7.4mph /  11.9km/h 18.5mph /  29.8km/h 50% 0in /  0.0mm
06:59 66.6 °F /  19.2 °C 47.1 °F /  8.4 °C 29.6in /  1002.7hPa Oeste 8mph /  12.8km/h 19mph /  30.6km/h 49.5% 0in /  0.0mm
07:04 66.6 °F /  19.2 °C 46 °F /  7.8 °C 29.6in /  1003.0hPa Oeste 10mph /  16.1km/h 15mph /  24.1km/h 47.5% 0in /  0.0mm
07:09 66.4 °F /  19.1 °C 45.3 °F /  7.4 °C 29.6in /  1003.0hPa ONO 9.3mph /  14.9km/h 16.1mph /  25.9km/h 46.5% 0in /  0.0mm
07:14 66.4 °F /  19.1 °C 44.6 °F /  7 °C 29.6in /  1003.0hPa ONO 8.1mph /  13km/h 19mph /  30.6km/h 45.6% 0in /  0.0mm
07:19 66.2 °F /  19 °C 44.2 °F /  6.8 °C 29.6in /  1003.2hPa ONO 9.1mph /  14.6km/h 22.3mph /  35.9km/h 45% 0in /  0.0mm
07:24 66 °F /  18.9 °C 44.1 °F /  6.7 °C 29.6in /  1003.2hPa ONO 10.7mph /  17.2km/h 22mph /  35.4km/h 45% 0in /  0.0mm
07:29 66 °F /  18.9 °C 44.1 °F /  6.7 °C 29.6in /  1003.2hPa ONO 10.4mph /  16.8km/h 17.3mph /  27.8km/h 45% 0in /  0.0mm
07:34 66 °F /  18.9 °C 44.1 °F /  6.7 °C 29.6in /  1003.6hPa ONO 10mph /  16.1km/h 17mph /  27.4km/h 45% 0in /  0.0mm
07:39 66 °F /  18.9 °C 44.1 °F /  6.7 °C 29.6in /  1003.6hPa ONO 9mph /  14.5km/h 14mph /  22.5km/h 45% 0in /  0.0mm
07:44 66 °F /  18.9 °C 44.1 °F /  6.7 °C 29.6in /  1003.6hPa Oeste 7.4mph /  11.9km/h 14mph /  22.5km/h 45% 0in /  0.0mm
07:49 66 °F /  18.9 °C 43.7 °F /  6.5 °C 29.6in /  1003.8hPa Oeste 7.2mph /  11.6km/h 18.4mph /  29.6km/h 44.3% 0in /  0.0mm
07:54 66.4 °F /  19.1 °C 43.7 °F /  6.5 °C 29.6in /  1003.8hPa OSO 6.9mph /  11.1km/h 18mph /  29km/h 44% 0in /  0.0mm
07:59 66.6 °F /  19.2 °C 43.5 °F /  6.4 °C 29.6in /  1003.8hPa Oeste 7.1mph /  11.4km/h 16.3mph /  26.2km/h 43.4% 0in /  0.0mm
08:04 66.7 °F /  19.3 °C 43.3 °F /  6.3 °C 29.7in /  1004.1hPa ONO 7.4mph /  11.9km/h 22.3mph /  35.9km/h 42.7% 0in /  0.0mm
08:09 66.7 °F /  19.3 °C 42.8 °F /  6 °C 29.7in /  1004.1hPa ONO 9.4mph /  15.1km/h 25.3mph /  40.7km/h 41.7% 0in /  0.0mm
08:14 67.1 °F /  19.5 °C 42.1 °F /  5.6 °C 29.7in /  1004.1hPa ONO 12.5mph /  20.1km/h 25mph /  40.2km/h 40.2% 0in /  0.0mm
08:19 67.3 °F /  19.6 °C 42.1 °F /  5.6 °C 29.7in /  1004.5hPa Oeste 13mph /  20.9km/h 24mph /  38.6km/h 39.8% 0in /  0.0mm
08:24 67.5 °F /  19.7 °C 41.5 °F /  5.3 °C 29.7in /  1004.5hPa Oeste 13.7mph /  22.1km/h 20mph /  32.2km/h 39% 0in /  0.0mm
08:29 67.5 °F /  19.7 °C 41.5 °F /  5.3 °C 29.7in /  1004.5hPa Oeste 12.6mph /  20.2km/h 21.9mph /  35.2km/h 39% 0in /  0.0mm
08:34 67.5 °F /  19.7 °C 41.5 °F /  5.3 °C 29.7in /  1004.7hPa Oeste 10.7mph /  17.2km/h 22mph /  35.4km/h 39% 0in /  0.0mm
08:39 67.5 °F /  19.7 °C 41.7 °F /  5.4 °C 29.7in /  1004.7hPa Oeste 10.7mph /  17.2km/h 22mph /  35.4km/h 39.1% 0in /  0.0mm
08:44 67.6 °F /  19.8 °C 41.9 °F /  5.5 °C 29.7in /  1004.7hPa Oeste 10.7mph /  17.2km/h 18.1mph /  29.1km/h 39.3% 0in /  0.0mm
08:49 67.6 °F /  19.8 °C 41.7 °F /  5.4 °C 29.7in /  1004.8hPa Oeste 10.1mph /  16.3km/h 18.4mph /  29.6km/h 39% 0in /  0.0mm
08:54 67.6 °F /  19.8 °C 42.1 °F /  5.6 °C 29.7in /  1004.8hPa Oeste 9.2mph /  14.8km/h 21.9mph /  35.2km/h 39.6% 0in /  0.0mm
08:59 67.6 °F /  19.8 °C 41.7 °F /  5.4 °C 29.7in /  1004.8hPa Oeste 10.3mph /  16.5km/h 22mph /  35.4km/h 39.1% 0in /  0.0mm
09:04 67.5 °F /  19.7 °C 42.1 °F /  5.6 °C 29.7in /  1004.8hPa Oeste 11.8mph /  19km/h 21.9mph /  35.2km/h 39.7% 0in /  0.0mm
09:09 67.5 °F /  19.7 °C 42.3 °F /  5.7 °C 29.7in /  1004.8hPa Oeste 11.6mph /  18.6km/h 22mph /  35.4km/h 40% 0in /  0.0mm
09:14 67.6 °F /  19.8 °C 41.9 °F /  5.5 °C 29.7in /  1004.8hPa ONO 11.2mph /  18km/h 23.7mph /  38.1km/h 39.1% 0in /  0.0mm
09:19 67.5 °F /  19.7 °C 41.9 °F /  5.5 °C 29.7in /  1004.9hPa ONO 12.1mph /  19.5km/h 24.2mph /  38.9km/h 39.4% 0in /  0.0mm
09:24 67.3 °F /  19.6 °C 42.1 °F /  5.6 °C 29.7in /  1004.9hPa ONO 13.5mph /  21.7km/h 23mph /  37km/h 39.8% 0in /  0.0mm
09:29 67.6 °F /  19.8 °C 42.4 °F /  5.8 °C 29.7in /  1004.9hPa Oeste 12.2mph /  19.6km/h 22mph /  35.4km/h 40% 0in /  0.0mm
09:34 67.8 °F /  19.9 °C 42.3 °F /  5.7 °C 29.7in /  1005.0hPa Oeste 10mph /  16.1km/h 19.7mph /  31.7km/h 39.4% 0in /  0.0mm
09:39 67.8 °F /  19.9 °C 42.6 °F /  5.9 °C 29.7in /  1005.0hPa Oeste 9.9mph /  15.9km/h 20mph /  32.2km/h 39.9% 0in /  0.0mm
09:44 68.4 °F /  20.2 °C 42.4 °F /  5.8 °C 29.7in /  1005.0hPa ONO 9.7mph /  15.6km/h 19.7mph /  31.7km/h 39.1% 0in /  0.0mm
09:49 68.4 °F /  20.2 °C 42.3 °F /  5.7 °C 29.7in /  1005.2hPa ONO 9.7mph /  15.6km/h 20mph /  32.2km/h 38.9% 0in /  0.0mm
09:54 68.4 °F /  20.2 °C 41.9 °F /  5.5 °C 29.7in /  1005.2hPa ONO 9.7mph /  15.6km/h 20mph /  32.2km/h 38.2% 0in /  0.0mm
09:59 68.4 °F /  20.2 °C 41.9 °F /  5.5 °C 29.7in /  1005.2hPa ONO 10.1mph /  16.3km/h 19.7mph /  31.7km/h 38.2% 0in /  0.0mm
10:04 68.4 °F /  20.2 °C 41.7 °F /  5.4 °C 29.7in /  1005.4hPa ONO 10.7mph /  17.2km/h 20mph /  32.2km/h 38% 0in /  0.0mm
10:09 68.5 °F /  20.3 °C 41.7 °F /  5.4 °C 29.7in /  1005.4hPa Oeste 10.5mph /  16.9km/h 21.5mph /  34.6km/h 37.7% 0in /  0.0mm
10:14 68.9 °F /  20.5 °C 41.2 °F /  5.1 °C 29.7in /  1005.4hPa OSO 10.2mph /  16.4km/h 22mph /  35.4km/h 36.6% 0in /  0.0mm
10:19 69.1 °F /  20.6 °C 41.4 °F /  5.2 °C 29.7in /  1005.4hPa Oeste 10.2mph /  16.4km/h 22mph /  35.4km/h 36.6% 0in /  0.0mm
10:24 69.3 °F /  20.7 °C 41.4 °F /  5.2 °C 29.7in /  1005.4hPa Oeste 10.2mph /  16.4km/h 21mph /  33.8km/h 36.5% 0in /  0.0mm
10:29 69.3 °F /  20.7 °C 41.2 °F /  5.1 °C 29.7in /  1005.4hPa Oeste 10.1mph /  16.3km/h 19mph /  30.6km/h 36% 0in /  0.0mm
10:34 69.4 °F /  20.8 °C 41.2 °F /  5.1 °C 29.7in /  1005.4hPa Oeste 10mph /  16.1km/h 19.6mph /  31.5km/h 35.8% 0in /  0.0mm
10:39 69.8 °F /  21 °C 41.7 °F /  5.4 °C 29.7in /  1005.4hPa Oeste 9.7mph /  15.6km/h 20mph /  32.2km/h 35.9% 0in /  0.0mm
10:44 70.2 °F /  21.2 °C 41.2 °F /  5.1 °C 29.7in /  1005.4hPa ONO 9.2mph /  14.8km/h 18.1mph /  29.1km/h 35.2% 0in /  0.0mm
10:49 70.2 °F /  21.2 °C 41.4 °F /  5.2 °C 29.7in /  1005.4hPa Oeste 9.2mph /  14.8km/h 24.6mph /  39.6km/h 35.1% 0in /  0.0mm
10:54 70.3 °F /  21.3 °C 41 °F /  5 °C 29.7in /  1005.4hPa ONO 9.2mph /  14.8km/h 25mph /  40.2km/h 34.3% 0in /  0.0mm
10:59 70.2 °F /  21.2 °C 40.5 °F /  4.7 °C 29.7in /  1005.4hPa Oeste 9.2mph /  14.8km/h 17.3mph /  27.8km/h 34% 0in /  0.0mm
11:04 70.2 °F /  21.2 °C 40.8 °F /  4.9 °C 29.7in /  1005.4hPa ONO 9.2mph /  14.8km/h 17.8mph /  28.6km/h 34.5% 0in /  0.0mm
11:09 70.3 °F /  21.3 °C 40.3 °F /  4.6 °C 29.7in /  1005.3hPa ONO 9.4mph /  15.1km/h 19.7mph /  31.7km/h 33.5% 0in /  0.0mm
11:14 70.3 °F /  21.3 °C 39.9 °F /  4.4 °C 29.7in /  1005.3hPa ONO 9.7mph /  15.6km/h 20.8mph /  33.5km/h 33% 0in /  0.0mm
11:19 70.5 °F /  21.4 °C 39.9 °F /  4.4 °C 29.7in /  1005.4hPa ONO 10.5mph /  16.9km/h 21mph /  33.8km/h 33% 0in /  0.0mm
11:24 70.7 °F /  21.5 °C 40.5 °F /  4.7 °C 29.7in /  1005.4hPa Oeste 12.3mph /  19.8km/h 21.5mph /  34.6km/h 33.4% 0in /  0.0mm
11:29 70.9 °F /  21.6 °C 39.4 °F /  4.1 °C 29.7in /  1005.4hPa Oeste 11.9mph /  19.1km/h 22mph /  35.4km/h 31.8% 0in /  0.0mm
11:34 71.1 °F /  21.7 °C 39.6 °F /  4.2 °C 29.7in /  1005.4hPa Oeste 11.2mph /  18km/h 22.3mph /  35.9km/h 31.8% 0in /  0.0mm
11:39 71.2 °F /  21.8 °C 39.2 °F /  4 °C 29.7in /  1005.4hPa Oeste 11.2mph /  18km/h 22mph /  35.4km/h 31.3% 0in /  0.0mm
11:44 71.6 °F /  22 °C 39.7 °F /  4.3 °C 29.7in /  1005.4hPa Oeste 11.2mph /  18km/h 20.8mph /  33.5km/h 31.3% 0in /  0.0mm
11:49 72 °F /  22.2 °C 39.7 °F /  4.3 °C 29.7in /  1005.4hPa ONO 11mph /  17.7km/h 21mph /  33.8km/h 31% 0in /  0.0mm
11:54 72.1 °F /  22.3 °C 39 °F /  3.9 °C 29.7in /  1005.3hPa Oeste 10.7mph /  17.2km/h 21.9mph /  35.2km/h 30% 0in /  0.0mm
11:59 72.5 °F /  22.5 °C 39 °F /  3.9 °C 29.7in /  1005.3hPa Oeste 11.1mph /  17.9km/h 22mph /  35.4km/h 29.7% 0in /  0.0mm
12:04 72.7 °F /  22.6 °C 38.8 °F /  3.8 °C 29.7in /  1005.5hPa Oeste 11.8mph /  19km/h 22mph /  35.4km/h 29.4% 0in /  0.0mm
12:09 72.9 °F /  22.7 °C 38.3 °F /  3.5 °C 29.7in /  1005.5hPa Oeste 11.6mph /  18.6km/h 20.8mph /  33.5km/h 28.6% 0in /  0.0mm
12:14 72.9 °F /  22.7 °C 37.6 °F /  3.1 °C 29.7in /  1005.5hPa Oeste 11.2mph /  18km/h 21mph /  33.8km/h 27.9% 0in /  0.0mm
12:19 72.9 °F /  22.7 °C 37.4 °F /  3 °C 29.7in /  1005.7hPa Oeste 11.4mph /  18.4km/h 20mph /  32.2km/h 27.5% 0in /  0.0mm
12:24 72.9 °F /  22.7 °C 37.4 °F /  3 °C 29.7in /  1005.7hPa Oeste 11.8mph /  19km/h 20.8mph /  33.5km/h 27.6% 0in /  0.0mm
12:29 73 °F /  22.8 °C 37.6 °F /  3.1 °C 29.7in /  1005.7hPa Oeste 12mph /  19.3km/h 21mph /  33.8km/h 27.7% 0in /  0.0mm
12:34 73.4 °F /  23 °C 37.8 °F /  3.2 °C 29.7in /  1005.7hPa ONO 12.3mph /  19.8km/h 21mph /  33.8km/h 27.5% 0in /  0.0mm
12:39 73.6 °F /  23.1 °C 37.2 °F /  2.9 °C 29.7in /  1005.7hPa ONO 11.9mph /  19.2km/h 21mph /  33.8km/h 26.8% 0in /  0.0mm
12:44 73.4 °F /  23 °C 37.9 °F /  3.3 °C 29.7in /  1005.7hPa ONO 11.4mph /  18.4km/h 21mph /  33.8km/h 27.6% 0in /  0.0mm
12:49 73.9 °F /  23.3 °C 37 °F /  2.8 °C 29.7in /  1005.7hPa ONO 11.6mph /  18.6km/h 28.8mph /  46.3km/h 26.2% 0in /  0.0mm
12:54 73.8 °F /  23.2 °C 36 °F /  2.2 °C 29.7in /  1005.6hPa ONO 11.8mph /  19km/h 29.1mph /  46.8km/h 25.3% 0in /  0.0mm
12:59 74.1 °F /  23.4 °C 36 °F /  2.2 °C 29.7in /  1005.6hPa ONO 13.4mph /  21.6km/h 29mph /  46.7km/h 24.9% 0in /  0.0mm
13:04 74.7 °F /  23.7 °C 36.1 °F /  2.3 °C 29.7in /  1005.6hPa ONO 15.6mph /  25.1km/h 24.2mph /  38.9km/h 24.7% 0in /  0.0mm
13:09 74.7 °F /  23.7 °C 34.9 °F /  1.6 °C 29.7in /  1005.6hPa ONO 15.2mph /  24.4km/h 27.9mph /  44.9km/h 23.4% 0in /  0.0mm
13:14 74.7 °F /  23.7 °C 34.5 °F /  1.4 °C 29.7in /  1005.6hPa Oeste 14.5mph /  23.3km/h 31.1mph /  50.1km/h 23.2% 0in /  0.0mm
13:19 75.4 °F /  24.1 °C 34.9 °F /  1.6 °C 29.7in /  1005.8hPa Oeste 14.8mph /  23.8km/h 31.1mph /  50.1km/h 23% 0in /  0.0mm
13:24 75.4 °F /  24.1 °C 34.5 °F /  1.4 °C 29.7in /  1005.8hPa ONO 15.2mph /  24.5km/h 31mph /  49.9km/h 22.6% 0in /  0.0mm
13:29 75.4 °F /  24.1 °C 35.4 °F /  1.9 °C 29.7in /  1005.8hPa ONO 14.7mph /  23.7km/h 26mph /  41.8km/h 23.4% 0in /  0.0mm
13:34 75.7 °F /  24.3 °C 36 °F /  2.2 °C 29.7in /  1006.0hPa ONO 14mph /  22.5km/h 22mph /  35.4km/h 23.7% 0in /  0.0mm
13:39 75.6 °F /  24.2 °C 35.4 °F /  1.9 °C 29.7in /  1006.0hPa ONO 13.4mph /  21.6km/h 24.2mph /  38.9km/h 23.3% 0in /  0.0mm
13:44 75.6 °F /  24.2 °C 36 °F /  2.2 °C 29.7in /  1006.0hPa NO 12.5mph /  20.1km/h 25.6mph /  41.2km/h 23.8% 0in /  0.0mm
13:49 75.6 °F /  24.2 °C 35.1 °F /  1.7 °C 29.7in /  1006.0hPa ONO 13.3mph /  21.4km/h 26mph /  41.8km/h 23% 0in /  0.0mm
13:54 75.6 °F /  24.2 °C 35.4 °F /  1.9 °C 29.7in /  1005.8hPa ONO 14.5mph /  23.3km/h 23mph /  37km/h 23.2% 0in /  0.0mm
13:59 75.7 °F /  24.3 °C 35.2 °F /  1.8 °C 29.7in /  1005.8hPa NO 14mph /  22.6km/h 23mph /  37km/h 23% 0in /  0.0mm
14:04 75.9 °F /  24.4 °C 35.4 °F /  1.9 °C 29.7in /  1005.8hPa ONO 13.5mph /  21.7km/h 23.7mph /  38.1km/h 23% 0in /  0.0mm
14:09 76.1 °F /  24.5 °C 35.6 °F /  2 °C 29.7in /  1005.2hPa ONO 13.5mph /  21.7km/h 24.6mph /  39.6km/h 23% 0in /  0.0mm
14:14 75.7 °F /  24.3 °C 35.4 °F /  1.9 °C 29.7in /  1005.2hPa ONO 13.5mph /  21.7km/h 25mph /  40.2km/h 23.1% 0in /  0.0mm
14:19 75.9 °F /  24.4 °C 35.4 °F /  1.9 °C 29.7in /  1005.3hPa ONO 12.6mph /  20.3km/h 20mph /  32.2km/h 23% 0in /  0.0mm
14:24 75.7 °F /  24.3 °C 35.4 °F /  1.9 °C 29.7in /  1005.3hPa NO 11.2mph /  18km/h 23mph /  37km/h 23.2% 0in /  0.0mm
14:29 75.4 °F /  24.1 °C 36.1 °F /  2.3 °C 29.7in /  1005.3hPa NO 11.4mph /  18.4km/h 23mph /  37km/h 24% 0in /  0.0mm
14:34 75.4 °F /  24.1 °C 35.6 °F /  2 °C 29.7in /  1005.4hPa ONO 11.8mph /  19km/h 25.3mph /  40.7km/h 23.6% 0in /  0.0mm
14:39 75.4 °F /  24.1 °C 36.1 °F /  2.3 °C 29.7in /  1005.4hPa ONO 11.8mph /  19km/h 25mph /  40.2km/h 24% 0in /  0.0mm
14:44 75.6 °F /  24.2 °C 36.5 °F /  2.5 °C 29.7in /  1005.4hPa NO 11.8mph /  19km/h 20.7mph /  33.3km/h 24.2% 0in /  0.0mm
14:49 75.6 °F /  24.2 °C 36.1 °F /  2.3 °C 29.7in /  1005.5hPa ONO 11.6mph /  18.7km/h 21.3mph /  34.3km/h 24% 0in /  0.0mm
14:54 75.7 °F /  24.3 °C 36.7 °F /  2.6 °C 29.7in /  1005.5hPa ONO 11.4mph /  18.4km/h 26.8mph /  43.1km/h 24.3% 0in /  0.0mm
14:59 75.7 °F /  24.3 °C 37 °F /  2.8 °C 29.7in /  1005.5hPa NO 12.3mph /  19.8km/h 27mph /  43.5km/h 24.5% 0in /  0.0mm
15:04 75.9 °F /  24.4 °C 36.7 °F /  2.6 °C 29.7in /  1005.5hPa ONO 13.5mph /  21.7km/h 23mph /  37km/h 24.2% 0in /  0.0mm
15:09 75.7 °F /  24.3 °C 36 °F /  2.2 °C 29.7in /  1005.4hPa ONO 13.7mph /  22km/h 28.8mph /  46.3km/h 23.5% 0in /  0.0mm
15:14 76.1 °F /  24.5 °C 36.7 °F /  2.6 °C 29.7in /  1005.4hPa ONO 14mph /  22.5km/h 29mph /  46.7km/h 24% 0in /  0.0mm
15:19 76.6 °F /  24.8 °C 36.9 °F /  2.7 °C 29.7in /  1005.4hPa ONO 14.6mph /  23.5km/h 27.9mph /  44.9km/h 23.8% 0in /  0.0mm
15:24 76.5 °F /  24.7 °C 37.6 °F /  3.1 °C 29.7in /  1005.2hPa ONO 15.6mph /  25.1km/h 29.7mph /  47.8km/h 24.6% 0in /  0.0mm
15:29 76.6 °F /  24.8 °C 38.1 °F /  3.4 °C 29.7in /  1005.2hPa NO 15.9mph /  25.6km/h 30mph /  48.3km/h 24.9% 0in /  0.0mm
15:34 76.5 °F /  24.7 °C 37.9 °F /  3.3 °C 29.7in /  1005.3hPa NO 16.3mph /  26.2km/h 30mph /  48.3km/h 25% 0in /  0.0mm
15:39 76.6 °F /  24.8 °C 37.9 °F /  3.3 °C 29.7in /  1005.3hPa ONO 15.3mph /  24.6km/h 23mph /  37km/h 24.9% 0in /  0.0mm
15:44 76.8 °F /  24.9 °C 38.3 °F /  3.5 °C 29.7in /  1005.3hPa ONO 13.5mph /  21.7km/h 21.9mph /  35.2km/h 25% 0in /  0.0mm
15:49 76.8 °F /  24.9 °C 37.9 °F /  3.3 °C 29.7in /  1005.4hPa ONO 13.7mph /  22km/h 24.6mph /  39.6km/h 24.7% 0in /  0.0mm
15:54 76.3 °F /  24.6 °C 37.9 °F /  3.3 °C 29.7in /  1005.4hPa ONO 14mph /  22.5km/h 27.6mph /  44.4km/h 25% 0in /  0.0mm
15:59 75.9 °F /  24.4 °C 38.1 °F /  3.4 °C 29.7in /  1005.4hPa ONO 14.2mph /  22.9km/h 28mph /  45.1km/h 25.6% 0in /  0.0mm
16:04 76.3 °F /  24.6 °C 38.7 °F /  3.7 °C 29.7in /  1005.7hPa ONO 14.5mph /  23.3km/h 21.9mph /  35.2km/h 25.8% 0in /  0.0mm
16:09 76.5 °F /  24.7 °C 38.3 °F /  3.5 °C 29.7in /  1005.7hPa OSO 13.3mph /  21.4km/h 23mph /  37km/h 25.3% 0in /  0.0mm
16:14 76.6 °F /  24.8 °C 38.3 °F /  3.5 °C 29.7in /  1005.7hPa Oeste 11.4mph /  18.4km/h 23mph /  37km/h 25% 0in /  0.0mm
16:19 76.6 °F /  24.8 °C 38.1 °F /  3.4 °C 29.7in /  1005.7hPa Oeste 11.1mph /  17.9km/h 21.9mph /  35.2km/h 25% 0in /  0.0mm
16:24 76.5 °F /  24.7 °C 38.1 °F /  3.4 °C 29.7in /  1005.6hPa Oeste 10.7mph /  17.2km/h 22mph /  35.4km/h 25% 0in /  0.0mm
16:29 76.1 °F /  24.5 °C 38.1 °F /  3.4 °C 29.7in /  1005.6hPa ONO 10.9mph /  17.5km/h 19.7mph /  31.7km/h 25.4% 0in /  0.0mm
16:34 76.3 °F /  24.6 °C 38.5 °F /  3.6 °C 29.7in /  1005.6hPa Oeste 11.2mph /  18km/h 20mph /  32.2km/h 25.6% 0in /  0.0mm
16:39 76.3 °F /  24.6 °C 38.5 °F /  3.6 °C 29.7in /  1005.2hPa ONO 10.6mph /  17.1km/h 24.8mph /  39.9km/h 25.6% 0in /  0.0mm
16:44 76.5 °F /  24.7 °C 38.5 °F /  3.6 °C 29.7in /  1005.2hPa Oeste 9.7mph /  15.6km/h 25.3mph /  40.7km/h 25.5% 0in /  0.0mm
16:49 76.3 °F /  24.6 °C 38.1 °F /  3.4 °C 29.7in /  1005.4hPa ONO 10.5mph /  16.9km/h 23mph /  37km/h 25.3% 0in /  0.0mm
16:54 75.9 °F /  24.4 °C 38.1 °F /  3.4 °C 29.7in /  1005.4hPa Oeste 11.8mph /  19km/h 14mph /  22.5km/h 25.5% 0in /  0.0mm
16:59 75.9 °F /  24.4 °C 38.1 °F /  3.4 °C 29.7in /  1005.4hPa Oeste 9.9mph /  15.9km/h 13mph /  20.9km/h 25.5% 0in /  0.0mm
17:04 76.3 °F /  24.6 °C 38.8 °F /  3.8 °C 29.7in /  1005.4hPa Oeste 6.9mph /  11.1km/h 13mph /  20.9km/h 26% 0in /  0.0mm
17:09 76.6 °F /  24.8 °C 39.2 °F /  4 °C 29.7in /  1005.3hPa ONO 6.7mph /  10.8km/h 15.9mph /  25.6km/h 26% 0in /  0.0mm
17:14 76.5 °F /  24.7 °C 38.7 °F /  3.7 °C 29.7in /  1005.3hPa ONO 6.4mph /  10.3km/h 17.8mph /  28.6km/h 25.5% 0in /  0.0mm
17:19 76.1 °F /  24.5 °C 38.3 °F /  3.5 °C 29.7in /  1005.3hPa ONO 7.8mph /  12.6km/h 18.4mph /  29.6km/h 25.4% 0in /  0.0mm
17:24 75.9 °F /  24.4 °C 38.3 °F /  3.5 °C 29.7in /  1005.2hPa ONO 10.2mph /  16.4km/h 18mph /  29km/h 25.7% 0in /  0.0mm
17:29 75.9 °F /  24.4 °C 38.3 °F /  3.5 °C 29.7in /  1005.2hPa ONO 9.9mph /  15.9km/h 17mph /  27.4km/h 25.7% 0in /  0.0mm
17:34 75.9 °F /  24.4 °C 37.9 °F /  3.3 °C 29.7in /  1005.2hPa Oeste 9.2mph /  14.8km/h 18.5mph /  29.8km/h 25.4% 0in /  0.0mm
17:39 75.7 °F /  24.3 °C 37.9 °F /  3.3 °C 29.7in /  1005.1hPa Oeste 9.6mph /  15.4km/h 19mph /  30.6km/h 25.5% 0in /  0.0mm
17:44 75.9 °F /  24.4 °C 37.8 °F /  3.2 °C 29.7in /  1005.1hPa ONO 10.2mph /  16.4km/h 18.4mph /  29.6km/h 25.1% 0in /  0.0mm
17:49 76.1 °F /  24.5 °C 37.8 °F /  3.2 °C 29.7in /  1005.1hPa ONO 9.8mph /  15.8km/h 18mph /  29km/h 25% 0in /  0.0mm
17:54 76.3 °F /  24.6 °C 37.9 °F /  3.3 °C 29.7in /  1005.1hPa ONO 9.2mph /  14.8km/h 17.3mph /  27.8km/h 25% 0in /  0.0mm
17:59 76.3 °F /  24.6 °C 37.9 °F /  3.3 °C 29.7in /  1005.1hPa Oeste 9mph /  14.5km/h 17mph /  27.4km/h 25% 0in /  0.0mm
18:04 76.5 °F /  24.7 °C 38.7 °F /  3.7 °C 29.7in /  1005.1hPa ONO 8.7mph /  14km/h 14mph /  22.5km/h 25.7% 0in /  0.0mm
18:09 76.5 °F /  24.7 °C 38.8 °F /  3.8 °C 29.7in /  1005.1hPa ONO 8.4mph /  13.6km/h 17.3mph /  27.8km/h 25.9% 0in /  0.0mm
18:14 76.5 °F /  24.7 °C 39 °F /  3.9 °C 29.7in /  1005.1hPa ONO 8.1mph /  13km/h 18.4mph /  29.6km/h 26% 0in /  0.0mm
18:19 76.1 °F /  24.5 °C 39 °F /  3.9 °C 29.7in /  1005.3hPa ONO 8.9mph /  14.3km/h 18mph /  29km/h 26.4% 0in /  0.0mm
18:24 75.9 °F /  24.4 °C 39.2 °F /  4 °C 29.7in /  1005.3hPa NO 10.2mph /  16.4km/h 15mph /  24.1km/h 26.7% 0in /  0.0mm
18:29 75.9 °F /  24.4 °C 38.7 °F /  3.7 °C 29.7in /  1005.3hPa NO 10.2mph /  16.4km/h 20.8mph /  33.5km/h 26.2% 0in /  0.0mm
18:34 75.7 °F /  24.3 °C 38.5 °F /  3.6 °C 29.7in /  1005.3hPa NO 10.2mph /  16.4km/h 21mph /  33.8km/h 26% 0in /  0.0mm
18:39 76.1 °F /  24.5 °C 38.8 °F /  3.8 °C 29.7in /  1005.2hPa NO 10.6mph /  17km/h 19mph /  30.6km/h 26% 0in /  0.0mm
18:44 76.6 °F /  24.8 °C 39 °F /  3.9 °C 29.7in /  1005.2hPa NO 11.2mph /  18km/h 19mph /  30.6km/h 26% 0in /  0.0mm
18:49 76.6 °F /  24.8 °C 39 °F /  3.9 °C 29.7in /  1005.2hPa ONO 10.9mph /  17.5km/h 17mph /  27.4km/h 26% 0in /  0.0mm
18:54 76.5 °F /  24.7 °C 39 °F /  3.9 °C 29.7in /  1005.2hPa NO 10.2mph /  16.4km/h 19mph /  30.6km/h 26% 0in /  0.0mm
18:59 76.5 °F /  24.7 °C 38.7 °F /  3.7 °C 29.7in /  1005.2hPa ONO 10.1mph /  16.3km/h 20.7mph /  33.3km/h 25.6% 0in /  0.0mm
19:04 76.3 °F /  24.6 °C 38.8 °F /  3.8 °C 29.7in /  1005.2hPa NO 10mph /  16.1km/h 21mph /  33.8km/h 25.9% 0in /  0.0mm
19:09 76.3 °F /  24.6 °C 38.8 °F /  3.8 °C 29.7in /  1005.2hPa NO 10mph /  16.1km/h 19.6mph /  31.5km/h 26% 0in /  0.0mm
19:14 76.3 °F /  24.6 °C 38.8 °F /  3.8 °C 29.7in /  1005.2hPa NO 10mph /  16.1km/h 20mph /  32.2km/h 26% 0in /  0.0mm
19:19 76.5 °F /  24.7 °C 38.8 °F /  3.8 °C 29.7in /  1005.2hPa NO 9.5mph /  15.3km/h 18.4mph /  29.6km/h 25.8% 0in /  0.0mm
19:24 76.5 °F /  24.7 °C 38.8 °F /  3.8 °C 29.7in /  1005.2hPa NO 8.7mph /  14km/h 18mph /  29km/h 25.8% 0in /  0.0mm
19:29 76.6 °F /  24.8 °C 38.5 °F /  3.6 °C 29.7in /  1005.2hPa ONO 8.9mph /  14.3km/h 18.4mph /  29.6km/h 25.3% 0in /  0.0mm
19:34 76.8 °F /  24.9 °C 38.3 °F /  3.5 °C 29.7in /  1005.3hPa NO 9.2mph /  14.8km/h 18mph /  29km/h 25% 0in /  0.0mm
19:39 76.8 °F /  24.9 °C 38.3 °F /  3.5 °C 29.7in /  1005.3hPa NO 9.4mph /  15.1km/h 22.3mph /  35.9km/h 25% 0in /  0.0mm
19:44 76.6 °F /  24.8 °C 38.3 °F /  3.5 °C 29.7in /  1005.3hPa ONO 9.7mph /  15.6km/h 22mph /  35.4km/h 25% 0in /  0.0mm
19:49 76.6 °F /  24.8 °C 38.1 °F /  3.4 °C 29.7in /  1005.3hPa ONO 9.8mph /  15.8km/h 17.5mph /  28.2km/h 25% 0in /  0.0mm
19:54 76.6 °F /  24.8 °C 37.6 °F /  3.1 °C 29.7in /  1005.1hPa ONO 10mph /  16.1km/h 17mph /  27.4km/h 24.5% 0in /  0.0mm
19:59 76.6 °F /  24.8 °C 37.6 °F /  3.1 °C 29.7in /  1005.1hPa ONO 9.6mph /  15.5km/h 17.5mph /  28.2km/h 24.4% 0in /  0.0mm
20:04 76.5 °F /  24.7 °C 37.2 °F /  2.9 °C 29.7in /  1005.1hPa ONO 9.2mph /  14.8km/h 17mph /  27.4km/h 24.2% 0in /  0.0mm
20:09 76.1 °F /  24.5 °C 37.6 °F /  3.1 °C 29.7in /  1005.1hPa ONO 9.5mph /  15.3km/h 17.3mph /  27.8km/h 24.8% 0in /  0.0mm
20:14 75.7 °F /  24.3 °C 37.9 °F /  3.3 °C 29.7in /  1005.1hPa ONO 10mph /  16.1km/h 15.9mph /  25.6km/h 25.5% 0in /  0.0mm
20:19 75.6 °F /  24.2 °C 38.1 °F /  3.4 °C 29.7in /  1005.5hPa NO 9.7mph /  15.6km/h 17.3mph /  27.8km/h 26% 0in /  0.0mm
20:24 75.2 °F /  24 °C 38.1 °F /  3.4 °C 29.7in /  1005.5hPa NO 9.2mph /  14.8km/h 18.4mph /  29.6km/h 26.3% 0in /  0.0mm
20:29 75 °F /  23.9 °C 38.8 °F /  3.8 °C 29.7in /  1005.5hPa NO 9.4mph /  15.1km/h 18mph /  29km/h 27% 0in /  0.0mm
20:34 74.8 °F /  23.8 °C 39 °F /  3.9 °C 29.7in /  1005.8hPa NO 9.7mph /  15.6km/h 16mph /  25.7km/h 27.4% 0in /  0.0mm
20:39 74.7 °F /  23.7 °C 39.4 °F /  4.1 °C 29.7in /  1005.8hPa NO 8.3mph /  13.3km/h 16.1mph /  25.9km/h 28% 0in /  0.0mm
20:44 74.3 °F /  23.5 °C 39 °F /  3.9 °C 29.7in /  1005.8hPa NO 6.2mph /  10km/h 16mph /  25.7km/h 28% 0in /  0.0mm
20:49 74.1 °F /  23.4 °C 38.8 °F /  3.8 °C 29.7in /  1006.1hPa NO 6.6mph /  10.7km/h 13mph /  20.9km/h 28% 0in /  0.0mm
20:54 73.9 °F /  23.3 °C 38.8 °F /  3.8 °C 29.7in /  1006.1hPa NO 7.4mph /  11.9km/h 13mph /  20.9km/h 28% 0in /  0.0mm
20:59 73.9 °F /  23.3 °C 38.7 °F /  3.7 °C 29.7in /  1006.1hPa NO 7.2mph /  11.6km/h 10mph /  16.1km/h 28% 0in /  0.0mm
21:04 73.8 °F /  23.2 °C 38.7 °F /  3.7 °C 29.7in /  1006.3hPa NO 6.9mph /  11.1km/h 13mph /  20.9km/h 28% 0in /  0.0mm
21:09 73.6 °F /  23.1 °C 39.4 °F /  4.1 °C 29.7in /  1006.3hPa NO 6.3mph /  10.2km/h 13mph /  20.9km/h 28.9% 0in /  0.0mm
21:14 73.2 °F /  22.9 °C 39 °F /  3.9 °C 29.7in /  1006.3hPa NO 5.4mph /  8.7km/h 9.2mph /  14.8km/h 29% 0in /  0.0mm
21:19 73 °F /  22.8 °C 38.8 °F /  3.8 °C 29.7in /  1006.4hPa NO 5.3mph /  8.6km/h 9mph /  14.5km/h 29% 0in /  0.0mm
21:24 72.9 °F /  22.7 °C 38.8 °F /  3.8 °C 29.7in /  1006.4hPa NO 5.2mph /  8.4km/h 8.1mph /  13km/h 29% 0in /  0.0mm
21:29 72.9 °F /  22.7 °C 38.7 °F /  3.7 °C 29.7in /  1006.4hPa NO 4.8mph /  7.8km/h 8.1mph /  13km/h 29% 0in /  0.0mm
21:34 72.7 °F /  22.6 °C 38.7 °F /  3.7 °C 29.7in /  1006.5hPa NO 4.3mph /  6.9km/h 7.4mph /  11.9km/h 29% 0in /  0.0mm
21:39 72.5 °F /  22.5 °C 38.5 °F /  3.6 °C 29.7in /  1006.5hPa NO 4mph /  6.5km/h 7mph /  11.3km/h 29% 0in /  0.0mm
21:44 72.3 °F /  22.4 °C 38.5 °F /  3.6 °C 29.7in /  1006.5hPa NO 3.6mph /  5.8km/h 7mph /  11.3km/h 29.3% 0in /  0.0mm
21:49 72.1 °F /  22.3 °C 39 °F /  3.9 °C 29.7in /  1006.7hPa NO 3.6mph /  5.8km/h 6mph /  9.7km/h 30% 0in /  0.0mm
21:54 72 °F /  22.2 °C 38.8 °F /  3.8 °C 29.7in /  1006.7hPa NO 3.6mph /  5.8km/h 5.9mph /  9.5km/h 30% 0in /  0.0mm
21:59 71.8 °F /  22.1 °C 38.7 °F /  3.7 °C 29.7in /  1006.7hPa NNO 3.4mph /  5.5km/h 6mph /  9.7km/h 30% 0in /  0.0mm
22:04 71.4 °F /  21.9 °C 38.5 °F /  3.6 °C 29.7in /  1006.9hPa NNO 3.1mph /  5km/h 5.8mph /  9.3km/h 30% 0in /  0.0mm
22:09 71.2 °F /  21.8 °C 39 °F /  3.9 °C 29.7in /  1006.9hPa NNO 3.1mph /  5km/h 6mph /  9.7km/h 30.9% 0in /  0.0mm
22:14 71.1 °F /  21.7 °C 38.8 °F /  3.8 °C 29.7in /  1006.9hPa NNO 3.1mph /  5km/h 8.5mph /  13.7km/h 31% 0in /  0.0mm
22:19 70.9 °F /  21.6 °C 38.7 °F /  3.7 °C 29.7in /  1007.1hPa NNO 3.5mph /  5.7km/h 9mph /  14.5km/h 31% 0in /  0.0mm
22:24 70.7 °F /  21.5 °C 38.7 °F /  3.7 °C 29.7in /  1007.1hPa NNO 4.3mph /  6.9km/h 8mph /  12.9km/h 31% 0in /  0.0mm
22:29 70.5 °F /  21.4 °C 38.5 °F /  3.6 °C 29.7in /  1007.1hPa NNO 3.9mph /  6.2km/h 6.2mph /  10km/h 31% 0in /  0.0mm
22:34 70.3 °F /  21.3 °C 38.5 °F /  3.6 °C 29.7in /  1007.3hPa NNO 3.1mph /  5km/h 6mph /  9.7km/h 31.1% 0in /  0.0mm
22:39 70.3 °F /  21.3 °C 38.8 °F /  3.8 °C 29.7in /  1007.3hPa NNO 3mph /  4.9km/h 5mph /  8km/h 31.9% 0in /  0.0mm
22:44 70.2 °F /  21.2 °C 38.8 °F /  3.8 °C 29.7in /  1007.3hPa NO 2.9mph /  4.7km/h 3mph /  4.8km/h 32% 0in /  0.0mm
22:49 70 °F /  21.1 °C 38.8 °F /  3.8 °C 29.8in /  1007.5hPa NO 2.3mph /  3.7km/h 3.6mph /  5.8km/h 32% 0in /  0.0mm
22:54 70 °F /  21.1 °C 38.7 °F /  3.7 °C 29.8in /  1007.5hPa NNO 1.4mph /  2.2km/h 6.2mph /  10km/h 31.9% 0in /  0.0mm
22:59 70 °F /  21.1 °C 38.7 °F /  3.7 °C 29.8in /  1007.5hPa ONO 1.6mph /  2.6km/h 6mph /  9.7km/h 31.9% 0in /  0.0mm
23:04 69.8 °F /  21 °C 38.7 °F /  3.7 °C 29.8in /  1007.8hPa NO 2mph /  3.2km/h 5.2mph /  8.4km/h 32% 0in /  0.0mm
23:09 69.8 °F /  21 °C 38.7 °F /  3.7 °C 29.8in /  1007.8hPa NO 2.4mph /  3.8km/h 5mph /  8km/h 32% 0in /  0.0mm
23:14 69.6 °F /  20.9 °C 38.5 °F /  3.6 °C 29.8in /  1007.8hPa NNO 2.9mph /  4.7km/h 8.1mph /  13km/h 32% 0in /  0.0mm
23:19 69.6 °F /  20.9 °C 38.5 °F /  3.6 °C 29.8in /  1007.8hPa NNO 2.7mph /  4.3km/h 8mph /  12.9km/h 32% 0in /  0.0mm
23:24 69.6 °F /  20.9 °C 38.5 °F /  3.6 °C 29.8in /  1007.8hPa North 2.4mph /  3.9km/h 5mph /  8km/h 32.1% 0in /  0.0mm
23:29 69.4 °F /  20.8 °C 39.7 °F /  4.3 °C 29.8in /  1007.8hPa ESE 2.2mph /  3.6km/h 5.9mph /  9.5km/h 33.9% 0in /  0.0mm
23:34 69.3 °F /  20.7 °C 40.5 °F /  4.7 °C 29.8in /  1008.0hPa SE 2mph /  3.2km/h 6mph /  9.7km/h 35% 0in /  0.0mm
23:39 69.3 °F /  20.7 °C 40.3 °F /  4.6 °C 29.8in /  1008.0hPa SSE 2.4mph /  3.8km/h 5mph /  8km/h 35% 0in /  0.0mm
23:44 68.9 °F /  20.5 °C 40.5 °F /  4.7 °C 29.8in /  1008.0hPa SSE 2.9mph /  4.7km/h 5mph /  8km/h 35.4% 0in /  0.0mm
23:49 68.7 °F /  20.4 °C 40.6 °F /  4.8 °C 29.8in /  1008.1hPa SE 2.9mph /  4.7km/h 5mph /  8km/h 36% 0in /  0.0mm
23:54 68.7 °F /  20.4 °C 40.6 °F /  4.8 °C 29.8in /  1008.1hPa SE 2.9mph /  4.7km/h 5.2mph /  8.4km/h 35.8% 0in /  0.0mm
23:59 68.7 °F /  20.4 °C 39.7 °F /  4.3 °C 29.8in /  1008.1hPa ENE 2.7mph /  4.3km/h 5mph /  8km/h 34.6% 0in /  0.0mm
Murcia-Puente Tocinos, España
Compliments of Weather Underground - 3 mb

La estación de MeteoMurcia.com, publica sus datos en los siguientes proyectos:

Weather Underground PWS IMURCIAP2 Meteoclimatic www.awekas.at

W3Counter
Web Analytics